sensor_id;sensor_type;location;lat;lon;timestamp;pressure;altitude;pressure_sealevel;temperature;humidity
41230;BME280;26964;50.428;19.218;2023-04-12T00:00:10;1013.2;;;5.7;75.0
41230;BME280;26964;50.428;19.218;2023-04-12T00:01:10;1013.2;;;5.7;75.2
41230;BME280;26964;50.428;19.218;2023-04-12T00:02:10;1013.2;;;5.7;75.1
41230;BME280;26964;50.428;19.218;2023-04-12T00:03:10;1013.2;;;5.7;75.1
41230;BME280;26964;50.428;19.218;2023-04-12T00:04:10;1013.3;;;5.7;75.0
41230;BME280;26964;50.428;19.218;2023-04-12T00:05:09;1013.2;;;5.7;75.1
41230;BME280;26964;50.428;19.218;2023-04-12T00:06:10;1013.2;;;5.7;75.0
41230;BME280;26964;50.428;19.218;2023-04-12T00:07:10;1013.2;;;5.7;75.0
41230;BME280;26964;50.428;19.218;2023-04-12T00:08:10;1013.1;;;5.7;75.0
41230;BME280;26964;50.428;19.218;2023-04-12T00:09:10;1013.2;;;5.7;75.1
41230;BME280;26964;50.428;19.218;2023-04-12T00:10:10;1013.2;;;5.7;75.1
41230;BME280;26964;50.428;19.218;2023-04-12T00:11:10;1013.2;;;5.7;75.1
41230;BME280;26964;50.428;19.218;2023-04-12T00:12:10;1013.2;;;5.7;75.1
41230;BME280;26964;50.428;19.218;2023-04-12T00:13:10;1013.2;;;5.7;75.1
41230;BME280;26964;50.428;19.218;2023-04-12T00:14:09;1013.2;;;5.7;75.1
41230;BME280;26964;50.428;19.218;2023-04-12T00:15:09;1013.2;;;5.7;75.1
41230;BME280;26964;50.428;19.218;2023-04-12T00:16:10;1013.2;;;5.7;75.1
41230;BME280;26964;50.428;19.218;2023-04-12T00:17:10;1013.2;;;5.7;75.1
41230;BME280;26964;50.428;19.218;2023-04-12T00:18:10;1013.3;;;5.7;75.1
41230;BME280;26964;50.428;19.218;2023-04-12T00:19:10;1013.2;;;5.7;75.1
41230;BME280;26964;50.428;19.218;2023-04-12T00:20:10;1013.3;;;5.7;75.1
41230;BME280;26964;50.428;19.218;2023-04-12T00:21:10;1013.2;;;5.7;75.1
41230;BME280;26964;50.428;19.218;2023-04-12T00:22:10;1013.2;;;5.7;75.1
41230;BME280;26964;50.428;19.218;2023-04-12T00:23:10;1013.2;;;5.7;75.1
41230;BME280;26964;50.428;19.218;2023-04-12T00:24:09;1013.2;;;5.7;75.1
41230;BME280;26964;50.428;19.218;2023-04-12T00:25:10;1013.1;;;5.7;75.1
41230;BME280;26964;50.428;19.218;2023-04-12T00:26:10;1013.1;;;5.7;75.1
41230;BME280;26964;50.428;19.218;2023-04-12T00:27:10;1013.2;;;5.7;75.2
41230;BME280;26964;50.428;19.218;2023-04-12T00:28:10;1013.1;;;5.7;75.2
41230;BME280;26964;50.428;19.218;2023-04-12T00:29:10;1013.2;;;5.7;75.2
41230;BME280;26964;50.428;19.218;2023-04-12T00:30:10;1013.1;;;5.7;75.1
41230;BME280;26964;50.428;19.218;2023-04-12T00:31:10;1013.1;;;5.6;75.2
41230;BME280;26964;50.428;19.218;2023-04-12T00:32:10;1013.2;;;5.6;75.2
41230;BME280;26964;50.428;19.218;2023-04-12T00:33:10;1013.1;;;5.6;75.2
41230;BME280;26964;50.428;19.218;2023-04-12T00:34:10;1013.1;;;5.6;75.3
41230;BME280;26964;50.428;19.218;2023-04-12T00:35:09;1013.1;;;5.6;75.2
41230;BME280;26964;50.428;19.218;2023-04-12T00:36:09;1013.1;;;5.6;75.2
41230;BME280;26964;50.428;19.218;2023-04-12T00:37:10;1013.1;;;5.6;75.2
41230;BME280;26964;50.428;19.218;2023-04-12T00:38:10;1013.1;;;5.6;75.2
41230;BME280;26964;50.428;19.218;2023-04-12T00:39:09;1013.1;;;5.6;75.2
41230;BME280;26964;50.428;19.218;2023-04-12T00:40:10;1013.1;;;5.6;75.2
41230;BME280;26964;50.428;19.218;2023-04-12T00:41:09;1013.1;;;5.6;75.3
41230;BME280;26964;50.428;19.218;2023-04-12T00:42:10;1013.1;;;5.6;75.4
41230;BME280;26964;50.428;19.218;2023-04-12T00:43:10;1013.0;;;5.6;75.3
41230;BME280;26964;50.428;19.218;2023-04-12T00:44:10;1013.2;;;5.5;75.3
41230;BME280;26964;50.428;19.218;2023-04-12T00:45:10;1013.1;;;5.5;75.3
41230;BME280;26964;50.428;19.218;2023-04-12T00:46:10;1013.1;;;5.5;75.3
41230;BME280;26964;50.428;19.218;2023-04-12T00:47:09;1013.1;;;5.5;75.3
41230;BME280;26964;50.428;19.218;2023-04-12T00:48:09;1013.1;;;5.5;75.3
41230;BME280;26964;50.428;19.218;2023-04-12T00:49:09;1013.0;;;5.5;75.3
41230;BME280;26964;50.428;19.218;2023-04-12T00:50:10;1013.1;;;5.5;75.6
41230;BME280;26964;50.428;19.218;2023-04-12T00:51:10;1013.1;;;5.5;75.4
41230;BME280;26964;50.428;19.218;2023-04-12T00:52:13;1013.1;;;5.5;75.4
41230;BME280;26964;50.428;19.218;2023-04-12T00:53:10;1013.1;;;5.5;75.4
41230;BME280;26964;50.428;19.218;2023-04-12T00:54:09;1013.0;;;5.4;75.3
41230;BME280;26964;50.428;19.218;2023-04-12T00:55:10;1013.1;;;5.4;75.4
41230;BME280;26964;50.428;19.218;2023-04-12T00:56:09;1013.1;;;5.4;75.5
41230;BME280;26964;50.428;19.218;2023-04-12T00:57:09;1013.1;;;5.4;75.4
41230;BME280;26964;50.428;19.218;2023-04-12T00:58:09;1013.1;;;5.4;75.5
41230;BME280;26964;50.428;19.218;2023-04-12T00:59:09;1013.1;;;5.4;75.4
41230;BME280;26964;50.428;19.218;2023-04-12T01:00:10;1013.1;;;5.4;75.4
41230;BME280;26964;50.428;19.218;2023-04-12T01:01:10;1013.0;;;5.4;75.4
41230;BME280;26964;50.428;19.218;2023-04-12T01:02:10;1013.0;;;5.4;75.4
41230;BME280;26964;50.428;19.218;2023-04-12T01:03:09;1013.1;;;5.4;75.4
41230;BME280;26964;50.428;19.218;2023-04-12T01:04:09;1013.1;;;5.4;75.4
41230;BME280;26964;50.428;19.218;2023-04-12T01:05:09;1013.0;;;5.4;75.4
41230;BME280;26964;50.428;19.218;2023-04-12T01:06:12;1013.1;;;5.4;75.4
41230;BME280;26964;50.428;19.218;2023-04-12T01:07:13;1013.0;;;5.4;75.4
41230;BME280;26964;50.428;19.218;2023-04-12T01:08:14;1013.1;;;5.4;75.5
41230;BME280;26964;50.428;19.218;2023-04-12T01:09:14;1013.0;;;5.4;75.4
41230;BME280;26964;50.428;19.218;2023-04-12T01:10:15;1013.0;;;5.4;75.5
41230;BME280;26964;50.428;19.218;2023-04-12T01:11:15;1013.0;;;5.4;75.5
41230;BME280;26964;50.428;19.218;2023-04-12T01:12:15;1013.1;;;5.4;75.5
41230;BME280;26964;50.428;19.218;2023-04-12T01:13:17;1013.0;;;5.4;75.5
41230;BME280;26964;50.428;19.218;2023-04-12T01:14:14;1013.1;;;5.4;75.5
41230;BME280;26964;50.428;19.218;2023-04-12T01:15:13;1013.1;;;5.4;75.5
41230;BME280;26964;50.428;19.218;2023-04-12T01:16:13;1013.0;;;5.4;75.5
41230;BME280;26964;50.428;19.218;2023-04-12T01:17:12;1013.0;;;5.4;75.5
41230;BME280;26964;50.428;19.218;2023-04-12T01:18:14;1013.0;;;5.4;75.5
41230;BME280;26964;50.428;19.218;2023-04-12T01:20:13;1013.1;;;5.4;75.5
41230;BME280;26964;50.428;19.218;2023-04-12T01:21:13;1013.0;;;5.4;75.5
41230;BME280;26964;50.428;19.218;2023-04-12T01:22:12;1013.0;;;5.4;75.6
41230;BME280;26964;50.428;19.218;2023-04-12T01:23:14;1013.1;;;5.4;75.6
41230;BME280;26964;50.428;19.218;2023-04-12T01:26:26;1013.1;;;5.4;75.7
41230;BME280;26964;50.428;19.218;2023-04-12T01:28:11;1013.1;;;5.4;75.7
41230;BME280;26964;50.428;19.218;2023-04-12T01:29:15;1013.1;;;5.4;75.6
41230;BME280;26964;50.428;19.218;2023-04-12T01:30:11;1013.1;;;5.4;75.6
41230;BME280;26964;50.428;19.218;2023-04-12T01:31:10;1013.0;;;5.3;75.7
41230;BME280;26964;50.428;19.218;2023-04-12T01:32:10;1013.0;;;5.3;75.8
41230;BME280;26964;50.428;19.218;2023-04-12T01:33:11;1013.0;;;5.3;75.7
41230;BME280;26964;50.428;19.218;2023-04-12T01:34:10;1013.0;;;5.3;75.7
41230;BME280;26964;50.428;19.218;2023-04-12T01:35:09;1013.0;;;5.3;75.7
41230;BME280;26964;50.428;19.218;2023-04-12T01:36:12;1013.0;;;5.3;75.7
41230;BME280;26964;50.428;19.218;2023-04-12T01:37:10;1013.0;;;5.3;75.8
41230;BME280;26964;50.428;19.218;2023-04-12T01:38:09;1013.1;;;5.3;75.7
41230;BME280;26964;50.428;19.218;2023-04-12T01:39:09;1013.1;;;5.3;75.7
41230;BME280;26964;50.428;19.218;2023-04-12T01:40:11;1013.0;;;5.3;75.8
41230;BME280;26964;50.428;19.218;2023-04-12T01:41:09;1013.0;;;5.3;76.2
41230;BME280;26964;50.428;19.218;2023-04-12T01:42:32;1013.0;;;5.3;75.8
41230;BME280;26964;50.428;19.218;2023-04-12T01:43:11;1013.0;;;5.3;75.8
41230;BME280;26964;50.428;19.218;2023-04-12T01:44:11;1013.0;;;5.3;75.8
41230;BME280;26964;50.428;19.218;2023-04-12T01:45:10;1012.9;;;5.2;75.8
41230;BME280;26964;50.428;19.218;2023-04-12T01:46:09;1013.0;;;5.2;75.8
41230;BME280;26964;50.428;19.218;2023-04-12T01:47:10;1013.0;;;5.2;75.9
41230;BME280;26964;50.428;19.218;2023-04-12T01:48:10;1013.0;;;5.2;75.8
41230;BME280;26964;50.428;19.218;2023-04-12T01:49:09;1013.0;;;5.2;75.8
41230;BME280;26964;50.428;19.218;2023-04-12T01:50:14;1012.9;;;5.2;75.8
41230;BME280;26964;50.428;19.218;2023-04-12T01:51:13;1012.9;;;5.2;75.8
41230;BME280;26964;50.428;19.218;2023-04-12T01:52:13;1013.0;;;5.2;76.0
41230;BME280;26964;50.428;19.218;2023-04-12T01:53:16;1013.0;;;5.2;76.2
41230;BME280;26964;50.428;19.218;2023-04-12T01:54:16;1012.9;;;5.2;75.9
41230;BME280;26964;50.428;19.218;2023-04-12T01:55:13;1012.9;;;5.2;75.9
41230;BME280;26964;50.428;19.218;2023-04-12T01:56:10;1012.9;;;5.2;75.9
41230;BME280;26964;50.428;19.218;2023-04-12T01:57:10;1012.9;;;5.2;75.9
41230;BME280;26964;50.428;19.218;2023-04-12T01:58:10;1012.9;;;5.2;75.9
41230;BME280;26964;50.428;19.218;2023-04-12T01:59:09;1012.9;;;5.2;75.9
41230;BME280;26964;50.428;19.218;2023-04-12T02:00:10;1012.9;;;5.2;75.9
41230;BME280;26964;50.428;19.218;2023-04-12T02:01:10;1012.9;;;5.2;76.0
41230;BME280;26964;50.428;19.218;2023-04-12T02:02:10;1012.8;;;5.2;75.9
41230;BME280;26964;50.428;19.218;2023-04-12T02:03:10;1012.9;;;5.2;75.9
41230;BME280;26964;50.428;19.218;2023-04-12T02:04:10;1012.8;;;5.1;75.9
41230;BME280;26964;50.428;19.218;2023-04-12T02:05:10;1012.9;;;5.1;75.9
41230;BME280;26964;50.428;19.218;2023-04-12T02:06:10;1012.8;;;5.1;75.9
41230;BME280;26964;50.428;19.218;2023-04-12T02:07:10;1012.8;;;5.1;75.9
41230;BME280;26964;50.428;19.218;2023-04-12T02:08:10;1012.9;;;5.1;75.9
41230;BME280;26964;50.428;19.218;2023-04-12T02:09:10;1012.8;;;5.1;76.0
41230;BME280;26964;50.428;19.218;2023-04-12T02:10:13;1012.8;;;5.1;76.1
41230;BME280;26964;50.428;19.218;2023-04-12T02:11:10;1012.8;;;5.1;76.0
41230;BME280;26964;50.428;19.218;2023-04-12T02:12:10;1012.8;;;5.1;75.9
41230;BME280;26964;50.428;19.218;2023-04-12T02:13:10;1012.7;;;5.1;76.0
41230;BME280;26964;50.428;19.218;2023-04-12T02:14:09;1012.7;;;5.1;76.0
41230;BME280;26964;50.428;19.218;2023-04-12T02:15:10;1012.8;;;5.1;76.0
41230;BME280;26964;50.428;19.218;2023-04-12T02:16:09;1012.8;;;5.1;76.0
41230;BME280;26964;50.428;19.218;2023-04-12T02:17:10;1012.8;;;5.1;76.0
41230;BME280;26964;50.428;19.218;2023-04-12T02:18:10;1012.8;;;5.0;76.0
41230;BME280;26964;50.428;19.218;2023-04-12T02:19:10;1012.8;;;5.1;76.0
41230;BME280;26964;50.428;19.218;2023-04-12T02:20:10;1012.8;;;5.0;76.0
41230;BME280;26964;50.428;19.218;2023-04-12T02:21:10;1012.8;;;5.0;76.0
41230;BME280;26964;50.428;19.218;2023-04-12T02:22:10;1012.8;;;5.0;76.0
41230;BME280;26964;50.428;19.218;2023-04-12T02:23:10;1012.8;;;5.0;76.0
41230;BME280;26964;50.428;19.218;2023-04-12T02:24:10;1012.8;;;5.0;76.0
41230;BME280;26964;50.428;19.218;2023-04-12T02:25:09;1012.8;;;5.0;76.0
41230;BME280;26964;50.428;19.218;2023-04-12T02:26:10;1012.9;;;5.0;76.0
41230;BME280;26964;50.428;19.218;2023-04-12T02:27:10;1012.8;;;5.0;76.0
41230;BME280;26964;50.428;19.218;2023-04-12T02:28:10;1012.8;;;5.0;76.1
41230;BME280;26964;50.428;19.218;2023-04-12T02:29:09;1012.8;;;5.0;76.1
41230;BME280;26964;50.428;19.218;2023-04-12T02:30:09;1012.8;;;5.0;76.1
41230;BME280;26964;50.428;19.218;2023-04-12T02:31:10;1012.8;;;5.0;76.1
41230;BME280;26964;50.428;19.218;2023-04-12T02:32:10;1012.8;;;5.0;76.0
41230;BME280;26964;50.428;19.218;2023-04-12T02:33:10;1012.8;;;5.0;76.0
41230;BME280;26964;50.428;19.218;2023-04-12T02:34:09;1012.8;;;5.0;76.1
41230;BME280;26964;50.428;19.218;2023-04-12T02:35:09;1012.8;;;5.0;76.1
41230;BME280;26964;50.428;19.218;2023-04-12T02:36:10;1012.8;;;5.0;76.1
41230;BME280;26964;50.428;19.218;2023-04-12T02:37:09;1012.9;;;5.0;76.1
41230;BME280;26964;50.428;19.218;2023-04-12T02:38:10;1012.8;;;5.0;76.1
41230;BME280;26964;50.428;19.218;2023-04-12T02:39:10;1012.9;;;5.0;76.1
41230;BME280;26964;50.428;19.218;2023-04-12T02:40:10;1012.8;;;5.0;76.1
41230;BME280;26964;50.428;19.218;2023-04-12T02:42:10;1012.9;;;5.0;76.1
41230;BME280;26964;50.428;19.218;2023-04-12T02:43:10;1012.8;;;5.0;76.1
41230;BME280;26964;50.428;19.218;2023-04-12T02:44:09;1012.8;;;5.0;76.1
41230;BME280;26964;50.428;19.218;2023-04-12T02:45:10;1012.9;;;5.0;76.1
41230;BME280;26964;50.428;19.218;2023-04-12T02:46:13;1012.8;;;5.0;76.1
41230;BME280;26964;50.428;19.218;2023-04-12T02:47:10;1012.8;;;5.0;76.1
41230;BME280;26964;50.428;19.218;2023-04-12T02:48:09;1012.8;;;5.0;76.1
41230;BME280;26964;50.428;19.218;2023-04-12T02:49:10;1012.8;;;5.0;76.1
41230;BME280;26964;50.428;19.218;2023-04-12T02:50:09;1012.8;;;5.0;76.1
41230;BME280;26964;50.428;19.218;2023-04-12T02:51:09;1012.8;;;5.0;76.1
41230;BME280;26964;50.428;19.218;2023-04-12T02:52:10;1012.9;;;5.0;76.1
41230;BME280;26964;50.428;19.218;2023-04-12T02:53:10;1012.9;;;5.0;76.1
41230;BME280;26964;50.428;19.218;2023-04-12T02:54:09;1012.8;;;5.0;76.1
41230;BME280;26964;50.428;19.218;2023-04-12T02:55:10;1012.8;;;5.0;76.1
41230;BME280;26964;50.428;19.218;2023-04-12T02:56:09;1012.9;;;5.0;76.1
41230;BME280;26964;50.428;19.218;2023-04-12T02:57:10;1012.9;;;4.9;76.1
41230;BME280;26964;50.428;19.218;2023-04-12T02:58:09;1012.9;;;4.9;76.1
41230;BME280;26964;50.428;19.218;2023-04-12T02:59:10;1012.8;;;4.9;76.2
41230;BME280;26964;50.428;19.218;2023-04-12T03:00:10;1012.7;;;4.9;76.1
41230;BME280;26964;50.428;19.218;2023-04-12T03:01:10;1012.8;;;4.9;76.1
41230;BME280;26964;50.428;19.218;2023-04-12T03:02:10;1012.7;;;4.9;76.2
41230;BME280;26964;50.428;19.218;2023-04-12T03:03:10;1012.7;;;4.9;76.2
41230;BME280;26964;50.428;19.218;2023-04-12T03:04:10;1012.7;;;4.9;76.2
41230;BME280;26964;50.428;19.218;2023-04-12T03:05:09;1012.8;;;4.9;76.2
41230;BME280;26964;50.428;19.218;2023-04-12T03:06:10;1012.8;;;4.9;76.2
41230;BME280;26964;50.428;19.218;2023-04-12T03:07:10;1012.8;;;4.9;76.2
41230;BME280;26964;50.428;19.218;2023-04-12T03:08:09;1012.8;;;4.9;76.2
41230;BME280;26964;50.428;19.218;2023-04-12T03:09:10;1012.8;;;4.9;76.2
41230;BME280;26964;50.428;19.218;2023-04-12T03:10:09;1012.8;;;4.9;76.2
41230;BME280;26964;50.428;19.218;2023-04-12T03:11:10;1012.8;;;4.9;76.5
41230;BME280;26964;50.428;19.218;2023-04-12T03:12:10;1012.9;;;4.9;76.2
41230;BME280;26964;50.428;19.218;2023-04-12T03:13:10;1012.8;;;4.9;76.2
41230;BME280;26964;50.428;19.218;2023-04-12T03:14:10;1012.8;;;4.9;76.2
41230;BME280;26964;50.428;19.218;2023-04-12T03:15:09;1012.8;;;4.9;76.3
41230;BME280;26964;50.428;19.218;2023-04-12T03:17:10;1012.8;;;4.9;76.2
41230;BME280;26964;50.428;19.218;2023-04-12T03:18:10;1012.8;;;4.9;76.2
41230;BME280;26964;50.428;19.218;2023-04-12T03:19:10;1012.8;;;4.9;76.2
41230;BME280;26964;50.428;19.218;2023-04-12T03:20:09;1012.8;;;4.9;76.2
41230;BME280;26964;50.428;19.218;2023-04-12T03:21:09;1012.8;;;4.9;76.2
41230;BME280;26964;50.428;19.218;2023-04-12T03:22:10;1012.8;;;4.9;76.2
41230;BME280;26964;50.428;19.218;2023-04-12T03:23:09;1012.8;;;4.9;76.3
41230;BME280;26964;50.428;19.218;2023-04-12T03:24:10;1012.7;;;4.9;76.2
41230;BME280;26964;50.428;19.218;2023-04-12T03:25:09;1012.7;;;4.9;76.3
41230;BME280;26964;50.428;19.218;2023-04-12T03:26:10;1012.8;;;4.8;76.2
41230;BME280;26964;50.428;19.218;2023-04-12T03:27:10;1012.7;;;4.8;76.2
41230;BME280;26964;50.428;19.218;2023-04-12T03:28:10;1012.8;;;4.8;76.3
41230;BME280;26964;50.428;19.218;2023-04-12T03:29:10;1012.8;;;4.8;76.3
41230;BME280;26964;50.428;19.218;2023-04-12T03:30:09;1012.8;;;4.8;76.3
41230;BME280;26964;50.428;19.218;2023-04-12T03:31:10;1012.8;;;4.8;76.3
41230;BME280;26964;50.428;19.218;2023-04-12T03:32:09;1012.8;;;4.8;76.3
41230;BME280;26964;50.428;19.218;2023-04-12T03:33:10;1012.7;;;4.8;76.3
41230;BME280;26964;50.428;19.218;2023-04-12T03:34:10;1012.8;;;4.8;76.3
41230;BME280;26964;50.428;19.218;2023-04-12T03:35:10;1012.8;;;4.8;76.3
41230;BME280;26964;50.428;19.218;2023-04-12T03:36:09;1012.8;;;4.8;76.4
41230;BME280;26964;50.428;19.218;2023-04-12T03:37:10;1012.7;;;4.8;76.3
41230;BME280;26964;50.428;19.218;2023-04-12T03:38:10;1012.8;;;4.8;76.3
41230;BME280;26964;50.428;19.218;2023-04-12T03:39:10;1012.8;;;4.8;76.3
41230;BME280;26964;50.428;19.218;2023-04-12T03:40:09;1012.7;;;4.8;76.3
41230;BME280;26964;50.428;19.218;2023-04-12T03:41:10;1012.7;;;4.8;76.3
41230;BME280;26964;50.428;19.218;2023-04-12T03:42:10;1012.7;;;4.8;76.3
41230;BME280;26964;50.428;19.218;2023-04-12T03:43:09;1012.8;;;4.8;76.3
41230;BME280;26964;50.428;19.218;2023-04-12T03:44:10;1012.7;;;4.8;76.3
41230;BME280;26964;50.428;19.218;2023-04-12T03:45:09;1012.8;;;4.8;76.3
41230;BME280;26964;50.428;19.218;2023-04-12T03:46:10;1012.7;;;4.8;76.3
41230;BME280;26964;50.428;19.218;2023-04-12T03:47:09;1012.8;;;4.8;76.3
41230;BME280;26964;50.428;19.218;2023-04-12T03:48:10;1012.8;;;4.8;76.4
41230;BME280;26964;50.428;19.218;2023-04-12T03:49:09;1012.8;;;4.8;76.3
41230;BME280;26964;50.428;19.218;2023-04-12T03:50:09;1012.8;;;4.7;76.3
41230;BME280;26964;50.428;19.218;2023-04-12T03:51:09;1012.9;;;4.7;76.3
41230;BME280;26964;50.428;19.218;2023-04-12T03:52:09;1012.8;;;4.8;76.3
41230;BME280;26964;50.428;19.218;2023-04-12T03:53:09;1012.8;;;4.7;76.3
41230;BME280;26964;50.428;19.218;2023-04-12T03:54:09;1012.8;;;4.7;76.4
41230;BME280;26964;50.428;19.218;2023-04-12T03:55:09;1012.8;;;4.7;76.3
41230;BME280;26964;50.428;19.218;2023-04-12T03:56:10;1012.8;;;4.7;76.4
41230;BME280;26964;50.428;19.218;2023-04-12T03:57:10;1012.8;;;4.7;76.4
41230;BME280;26964;50.428;19.218;2023-04-12T03:58:10;1012.7;;;4.7;76.4
41230;BME280;26964;50.428;19.218;2023-04-12T03:59:10;1012.7;;;4.7;76.4
41230;BME280;26964;50.428;19.218;2023-04-12T04:00:10;1012.7;;;4.7;76.4
41230;BME280;26964;50.428;19.218;2023-04-12T04:01:10;1012.7;;;4.7;76.4
41230;BME280;26964;50.428;19.218;2023-04-12T04:02:10;1012.7;;;4.7;76.4
41230;BME280;26964;50.428;19.218;2023-04-12T04:03:10;1012.7;;;4.7;76.4
41230;BME280;26964;50.428;19.218;2023-04-12T04:04:10;1012.7;;;4.7;76.4
41230;BME280;26964;50.428;19.218;2023-04-12T04:05:09;1012.6;;;4.7;76.3
41230;BME280;26964;50.428;19.218;2023-04-12T04:06:09;1012.7;;;4.7;76.4
41230;BME280;26964;50.428;19.218;2023-04-12T04:07:10;1012.8;;;4.7;76.4
41230;BME280;26964;50.428;19.218;2023-04-12T04:08:09;1012.7;;;4.6;76.4
41230;BME280;26964;50.428;19.218;2023-04-12T04:09:10;1012.8;;;4.7;76.4
41230;BME280;26964;50.428;19.218;2023-04-12T04:10:09;1012.8;;;4.7;76.4
41230;BME280;26964;50.428;19.218;2023-04-12T04:11:10;1012.8;;;4.6;76.4
41230;BME280;26964;50.428;19.218;2023-04-12T04:12:10;1012.7;;;4.6;76.4
41230;BME280;26964;50.428;19.218;2023-04-12T04:13:10;1012.8;;;4.6;76.4
41230;BME280;26964;50.428;19.218;2023-04-12T04:14:10;1012.8;;;4.6;76.5
41230;BME280;26964;50.428;19.218;2023-04-12T04:15:10;1012.7;;;4.6;76.5
41230;BME280;26964;50.428;19.218;2023-04-12T04:16:09;1012.7;;;4.6;76.5
41230;BME280;26964;50.428;19.218;2023-04-12T04:17:10;1012.8;;;4.6;76.5
41230;BME280;26964;50.428;19.218;2023-04-12T04:18:10;1012.8;;;4.6;76.4
41230;BME280;26964;50.428;19.218;2023-04-12T04:19:10;1012.8;;;4.6;76.4
41230;BME280;26964;50.428;19.218;2023-04-12T04:20:09;1012.8;;;4.6;76.5
41230;BME280;26964;50.428;19.218;2023-04-12T04:21:10;1012.8;;;4.6;76.4
41230;BME280;26964;50.428;19.218;2023-04-12T04:22:10;1012.8;;;4.6;76.5
41230;BME280;26964;50.428;19.218;2023-04-12T04:23:10;1012.7;;;4.6;76.4
41230;BME280;26964;50.428;19.218;2023-04-12T04:24:10;1012.8;;;4.6;76.5
41230;BME280;26964;50.428;19.218;2023-04-12T04:25:09;1012.8;;;4.6;76.5
41230;BME280;26964;50.428;19.218;2023-04-12T04:26:10;1012.8;;;4.6;76.5
41230;BME280;26964;50.428;19.218;2023-04-12T04:27:09;1012.7;;;4.6;76.5
41230;BME280;26964;50.428;19.218;2023-04-12T04:28:09;1012.7;;;4.6;76.5
41230;BME280;26964;50.428;19.218;2023-04-12T04:29:10;1012.7;;;4.6;76.5
41230;BME280;26964;50.428;19.218;2023-04-12T04:30:09;1012.8;;;4.6;76.5
41230;BME280;26964;50.428;19.218;2023-04-12T04:31:09;1012.7;;;4.6;76.5
41230;BME280;26964;50.428;19.218;2023-04-12T04:32:10;1012.7;;;4.6;76.5
41230;BME280;26964;50.428;19.218;2023-04-12T04:33:09;1012.7;;;4.6;76.5
41230;BME280;26964;50.428;19.218;2023-04-12T04:34:10;1012.7;;;4.6;76.5
41230;BME280;26964;50.428;19.218;2023-04-12T04:35:10;1012.7;;;4.6;76.5
41230;BME280;26964;50.428;19.218;2023-04-12T04:36:09;1012.7;;;4.6;76.5
41230;BME280;26964;50.428;19.218;2023-04-12T04:37:10;1012.7;;;4.6;76.5
41230;BME280;26964;50.428;19.218;2023-04-12T04:38:10;1012.8;;;4.6;76.5
41230;BME280;26964;50.428;19.218;2023-04-12T04:39:09;1012.8;;;4.6;76.4
41230;BME280;26964;50.428;19.218;2023-04-12T04:40:09;1012.7;;;4.6;76.5
41230;BME280;26964;50.428;19.218;2023-04-12T04:41:10;1012.8;;;4.5;76.4
41230;BME280;26964;50.428;19.218;2023-04-12T04:42:10;1012.8;;;4.5;76.5
41230;BME280;26964;50.428;19.218;2023-04-12T04:43:10;1012.9;;;4.5;76.4
41230;BME280;26964;50.428;19.218;2023-04-12T04:44:10;1012.8;;;4.5;76.4
41230;BME280;26964;50.428;19.218;2023-04-12T04:45:09;1012.8;;;4.5;76.5
41230;BME280;26964;50.428;19.218;2023-04-12T04:46:10;1012.7;;;4.5;76.5
41230;BME280;26964;50.428;19.218;2023-04-12T04:47:09;1012.8;;;4.5;76.5
41230;BME280;26964;50.428;19.218;2023-04-12T04:48:10;1012.8;;;4.5;76.5
41230;BME280;26964;50.428;19.218;2023-04-12T04:49:10;1012.8;;;4.5;76.5
41230;BME280;26964;50.428;19.218;2023-04-12T04:50:09;1012.8;;;4.5;76.5
41230;BME280;26964;50.428;19.218;2023-04-12T04:51:10;1012.8;;;4.5;76.5
41230;BME280;26964;50.428;19.218;2023-04-12T04:52:09;1012.8;;;4.5;76.6
41230;BME280;26964;50.428;19.218;2023-04-12T04:53:09;1012.8;;;4.5;76.5
41230;BME280;26964;50.428;19.218;2023-04-12T04:54:10;1012.8;;;4.5;76.5
41230;BME280;26964;50.428;19.218;2023-04-12T04:55:09;1012.8;;;4.5;76.5
41230;BME280;26964;50.428;19.218;2023-04-12T04:56:09;1012.8;;;4.5;76.5
41230;BME280;26964;50.428;19.218;2023-04-12T04:57:10;1012.9;;;4.5;76.5
41230;BME280;26964;50.428;19.218;2023-04-12T04:58:09;1012.8;;;4.5;76.6
41230;BME280;26964;50.428;19.218;2023-04-12T04:59:10;1012.9;;;4.5;76.6
41230;BME280;26964;50.428;19.218;2023-04-12T05:00:10;1012.9;;;4.5;76.6
41230;BME280;26964;50.428;19.218;2023-04-12T05:01:09;1012.9;;;4.5;76.6
41230;BME280;26964;50.428;19.218;2023-04-12T05:02:09;1012.9;;;4.5;76.6
41230;BME280;26964;50.428;19.218;2023-04-12T05:03:09;1012.9;;;4.5;76.6
41230;BME280;26964;50.428;19.218;2023-04-12T05:04:10;1012.9;;;4.5;76.6
41230;BME280;26964;50.428;19.218;2023-04-12T05:05:10;1012.9;;;4.5;76.6
41230;BME280;26964;50.428;19.218;2023-04-12T05:06:10;1012.9;;;4.4;76.5
41230;BME280;26964;50.428;19.218;2023-04-12T05:07:09;1012.9;;;4.4;76.6
41230;BME280;26964;50.428;19.218;2023-04-12T05:08:10;1012.9;;;4.4;76.6
41230;BME280;26964;50.428;19.218;2023-04-12T05:09:09;1013.0;;;4.4;76.6
41230;BME280;26964;50.428;19.218;2023-04-12T05:10:09;1013.0;;;4.5;76.6
41230;BME280;26964;50.428;19.218;2023-04-12T05:11:10;1012.9;;;4.5;76.6
41230;BME280;26964;50.428;19.218;2023-04-12T05:12:09;1012.9;;;4.4;76.6
41230;BME280;26964;50.428;19.218;2023-04-12T05:13:10;1012.9;;;4.5;76.7
41230;BME280;26964;50.428;19.218;2023-04-12T05:14:10;1012.9;;;4.5;76.6
41230;BME280;26964;50.428;19.218;2023-04-12T05:15:09;1013.0;;;4.5;76.7
41230;BME280;26964;50.428;19.218;2023-04-12T05:16:09;1012.8;;;4.5;76.6
41230;BME280;26964;50.428;19.218;2023-04-12T05:17:10;1012.9;;;4.5;76.7
41230;BME280;26964;50.428;19.218;2023-04-12T05:18:10;1012.9;;;4.5;76.7
41230;BME280;26964;50.428;19.218;2023-04-12T05:19:10;1012.8;;;4.5;76.7
41230;BME280;26964;50.428;19.218;2023-04-12T05:20:09;1012.9;;;4.5;76.6
41230;BME280;26964;50.428;19.218;2023-04-12T05:21:09;1012.9;;;4.5;76.6
41230;BME280;26964;50.428;19.218;2023-04-12T05:22:09;1012.9;;;4.5;76.6
41230;BME280;26964;50.428;19.218;2023-04-12T05:23:09;1012.9;;;4.5;76.7
41230;BME280;26964;50.428;19.218;2023-04-12T05:24:10;1013.0;;;4.5;76.7
41230;BME280;26964;50.428;19.218;2023-04-12T05:25:09;1013.0;;;4.5;76.7
41230;BME280;26964;50.428;19.218;2023-04-12T05:26:09;1013.0;;;4.5;76.7
41230;BME280;26964;50.428;19.218;2023-04-12T05:27:09;1013.0;;;4.5;76.7
41230;BME280;26964;50.428;19.218;2023-04-12T05:28:10;1013.1;;;4.5;76.8
41230;BME280;26964;50.428;19.218;2023-04-12T05:29:10;1012.9;;;4.5;76.7
41230;BME280;26964;50.428;19.218;2023-04-12T05:30:09;1013.0;;;4.6;76.8
41230;BME280;26964;50.428;19.218;2023-04-12T05:31:10;1013.0;;;4.6;76.8
41230;BME280;26964;50.428;19.218;2023-04-12T05:32:09;1013.1;;;4.6;76.8
41230;BME280;26964;50.428;19.218;2023-04-12T05:33:09;1013.1;;;4.6;76.8
41230;BME280;26964;50.428;19.218;2023-04-12T05:34:09;1013.0;;;4.6;76.8
41230;BME280;26964;50.428;19.218;2023-04-12T05:35:10;1013.0;;;4.6;76.7
41230;BME280;26964;50.428;19.218;2023-04-12T05:36:09;1013.1;;;4.6;76.8
41230;BME280;26964;50.428;19.218;2023-04-12T05:37:10;1013.1;;;4.6;76.7
41230;BME280;26964;50.428;19.218;2023-04-12T05:38:10;1013.2;;;4.6;76.7
41230;BME280;26964;50.428;19.218;2023-04-12T05:39:10;1013.2;;;4.6;76.7
41230;BME280;26964;50.428;19.218;2023-04-12T05:40:09;1013.2;;;4.6;76.7
41230;BME280;26964;50.428;19.218;2023-04-12T05:41:09;1013.2;;;4.6;76.7